sensor_id;sensor_type;location;lat;lon;timestamp;pressure;altitude;pressure_sealevel;temperature;humidity
70730;BME280;58315;53.336;55.932;2023-04-19T00:02:10;101054.41;;;12.02;32.53
70730;BME280;58315;53.336;55.932;2023-04-19T00:04:37;101054.22;;;12.05;32.44
70730;BME280;58315;53.336;55.932;2023-04-19T00:07:04;101053.16;;;12.08;32.29
70730;BME280;58315;53.336;55.932;2023-04-19T00:09:30;101058.84;;;12.15;32.55
70730;BME280;58315;53.336;55.932;2023-04-19T00:11:56;101054.72;;;12.11;32.66
70730;BME280;58315;53.336;55.932;2023-04-19T00:14:22;101064.81;;;12.05;32.59
70730;BME280;58315;53.336;55.932;2023-04-19T00:16:48;101068.19;;;12.07;32.74
70730;BME280;58315;53.336;55.932;2023-04-19T00:19:14;101072.03;;;12.03;32.73
70730;BME280;58315;53.336;55.932;2023-04-19T00:21:40;101072.34;;;11.99;32.94
70730;BME280;58315;53.336;55.932;2023-04-19T00:24:06;101066.72;;;12.03;32.78
70730;BME280;58315;53.336;55.932;2023-04-19T00:26:32;101069.69;;;11.99;32.87
70730;BME280;58315;53.336;55.932;2023-04-19T00:28:59;101064.09;;;12.03;32.86
70730;BME280;58315;53.336;55.932;2023-04-19T00:31:25;101069.13;;;12.06;32.75
70730;BME280;58315;53.336;55.932;2023-04-19T00:33:51;101065.03;;;12.02;33.14
70730;BME280;58315;53.336;55.932;2023-04-19T00:36:17;101065.91;;;12.03;32.99
70730;BME280;58315;53.336;55.932;2023-04-19T00:38:46;101055.28;;;12.03;32.88
70730;BME280;58315;53.336;55.932;2023-04-19T00:41:12;101057.31;;;11.99;33.22
70730;BME280;58315;53.336;55.932;2023-04-19T00:43:38;101059.44;;;11.94;33.12
70730;BME280;58315;53.336;55.932;2023-04-19T00:46:06;101055.09;;;11.93;33.39
70730;BME280;58315;53.336;55.932;2023-04-19T00:48:33;101056.97;;;12.04;33.00
70730;BME280;58315;53.336;55.932;2023-04-19T00:51:01;101064.66;;;11.96;33.35
70730;BME280;58315;53.336;55.932;2023-04-19T00:53:27;101055.53;;;11.87;33.39
70730;BME280;58315;53.336;55.932;2023-04-19T00:55:56;101057.00;;;11.91;33.73
70730;BME280;58315;53.336;55.932;2023-04-19T00:58:24;101061.16;;;11.82;33.76
70730;BME280;58315;53.336;55.932;2023-04-19T01:00:50;101053.72;;;11.88;33.59
70730;BME280;58315;53.336;55.932;2023-04-19T01:03:19;101050.56;;;11.82;33.77
70730;BME280;58315;53.336;55.932;2023-04-19T01:05:45;101040.31;;;11.78;34.04
70730;BME280;58315;53.336;55.932;2023-04-19T01:08:12;101051.97;;;11.63;34.28
70730;BME280;58315;53.336;55.932;2023-04-19T01:10:38;101048.22;;;11.41;34.30
70730;BME280;58315;53.336;55.932;2023-04-19T01:13:04;101039.19;;;11.56;34.30
70730;BME280;58315;53.336;55.932;2023-04-19T01:15:30;101034.94;;;11.67;34.24
70730;BME280;58315;53.336;55.932;2023-04-19T01:17:57;101040.94;;;11.69;34.09
70730;BME280;58315;53.336;55.932;2023-04-19T01:20:23;101043.50;;;11.70;33.99
70730;BME280;58315;53.336;55.932;2023-04-19T01:22:49;101053.38;;;11.55;34.30
70730;BME280;58315;53.336;55.932;2023-04-19T01:25:15;101057.09;;;11.53;34.14
70730;BME280;58315;53.336;55.932;2023-04-19T01:27:42;101061.13;;;11.46;34.25
70730;BME280;58315;53.336;55.932;2023-04-19T01:30:09;101058.25;;;11.49;34.12
70730;BME280;58315;53.336;55.932;2023-04-19T01:32:36;101060.28;;;11.45;34.41
70730;BME280;58315;53.336;55.932;2023-04-19T01:35:02;101059.00;;;11.51;34.27
70730;BME280;58315;53.336;55.932;2023-04-19T01:37:34;101057.81;;;11.55;34.23
70730;BME280;58315;53.336;55.932;2023-04-19T01:40:03;101060.28;;;11.45;34.50
70730;BME280;58315;53.336;55.932;2023-04-19T01:42:31;101063.88;;;11.44;34.49
70730;BME280;58315;53.336;55.932;2023-04-19T01:44:59;101063.88;;;11.44;34.58
70730;BME280;58315;53.336;55.932;2023-04-19T01:47:26;101062.38;;;11.40;34.38
70730;BME280;58315;53.336;55.932;2023-04-19T01:49:52;101061.22;;;11.44;34.28
70730;BME280;58315;53.336;55.932;2023-04-19T01:52:18;101061.97;;;11.46;34.09
70730;BME280;58315;53.336;55.932;2023-04-19T01:54:47;101068.31;;;11.56;33.86
70730;BME280;58315;53.336;55.932;2023-04-19T01:57:14;101070.22;;;11.54;34.43
70730;BME280;58315;53.336;55.932;2023-04-19T01:59:41;101066.16;;;11.62;34.46
70730;BME280;58315;53.336;55.932;2023-04-19T02:02:07;101065.75;;;11.68;34.18
70730;BME280;58315;53.336;55.932;2023-04-19T02:04:34;101068.91;;;11.73;33.94
70730;BME280;58315;53.336;55.932;2023-04-19T02:07:00;101070.59;;;11.74;34.00
70730;BME280;58315;53.336;55.932;2023-04-19T02:09:28;101064.34;;;11.75;34.08
70730;BME280;58315;53.336;55.932;2023-04-19T02:11:55;101065.91;;;11.90;34.05
70730;BME280;58315;53.336;55.932;2023-04-19T02:14:21;101064.00;;;11.79;34.10
70730;BME280;58315;53.336;55.932;2023-04-19T02:16:47;101064.53;;;11.85;34.42
70730;BME280;58315;53.336;55.932;2023-04-19T02:19:13;101071.44;;;11.87;34.06
70730;BME280;58315;53.336;55.932;2023-04-19T02:21:40;101074.16;;;11.98;34.17
70730;BME280;58315;53.336;55.932;2023-04-19T02:24:06;101068.41;;;12.04;33.91
70730;BME280;58315;53.336;55.932;2023-04-19T02:26:32;101070.16;;;12.17;34.04
70730;BME280;58315;53.336;55.932;2023-04-19T02:28:58;101070.56;;;12.23;33.81
70730;BME280;58315;53.336;55.932;2023-04-19T02:31:25;101073.59;;;12.30;33.83
70730;BME280;58315;53.336;55.932;2023-04-19T02:33:51;101068.66;;;12.25;33.86
70730;BME280;58315;53.336;55.932;2023-04-19T02:36:17;101074.88;;;12.24;33.73
70730;BME280;58315;53.336;55.932;2023-04-19T02:38:42;101070.47;;;12.25;33.78
70730;BME280;58315;53.336;55.932;2023-04-19T02:41:09;101069.78;;;12.34;33.87
70730;BME280;58315;53.336;55.932;2023-04-19T02:43:38;101064.50;;;12.45;33.74
70730;BME280;58315;53.336;55.932;2023-04-19T02:46:05;101058.44;;;12.67;33.49
70730;BME280;58315;53.336;55.932;2023-04-19T02:48:31;101062.16;;;12.65;33.39
70730;BME280;58315;53.336;55.932;2023-04-19T02:50:57;101058.47;;;12.78;33.21
70730;BME280;58315;53.336;55.932;2023-04-19T02:53:24;101057.41;;;12.92;33.17
70730;BME280;58315;53.336;55.932;2023-04-19T02:55:50;101055.00;;;13.00;32.72
70730;BME280;58315;53.336;55.932;2023-04-19T02:58:18;101056.22;;;13.08;33.01
70730;BME280;58315;53.336;55.932;2023-04-19T03:00:58;101058.66;;;13.11;32.76
70730;BME280;58315;53.336;55.932;2023-04-19T03:03:25;101062.00;;;13.01;32.92
70730;BME280;58315;53.336;55.932;2023-04-19T03:05:52;101065.28;;;13.05;32.91
70730;BME280;58315;53.336;55.932;2023-04-19T03:08:18;101065.28;;;13.05;32.95
70730;BME280;58315;53.336;55.932;2023-04-19T03:10:45;101057.22;;;13.07;33.06
70730;BME280;58315;53.336;55.932;2023-04-19T03:13:11;101056.47;;;13.16;33.02
70730;BME280;58315;53.336;55.932;2023-04-19T03:15:37;101056.13;;;13.09;32.69
70730;BME280;58315;53.336;55.932;2023-04-19T03:18:03;101052.63;;;13.20;32.72
70730;BME280;58315;53.336;55.932;2023-04-19T03:20:29;101055.81;;;13.25;32.67
70730;BME280;58315;53.336;55.932;2023-04-19T03:22:56;101055.22;;;13.33;32.63
70730;BME280;58315;53.336;55.932;2023-04-19T03:25:23;101059.19;;;13.38;32.60
70730;BME280;58315;53.336;55.932;2023-04-19T03:27:57;101058.69;;;13.44;32.32
70730;BME280;58315;53.336;55.932;2023-04-19T03:30:44;101045.41;;;13.56;32.31
70730;BME280;58315;53.336;55.932;2023-04-19T03:33:10;101049.88;;;13.66;32.41
70730;BME280;58315;53.336;55.932;2023-04-19T03:35:36;101054.22;;;13.67;32.15
70730;BME280;58315;53.336;55.932;2023-04-19T03:38:09;101055.06;;;13.79;32.23
70730;BME280;58315;53.336;55.932;2023-04-19T03:40:36;101055.34;;;14.40;32.08
70730;BME280;58315;53.336;55.932;2023-04-19T03:43:04;101055.91;;;15.89;30.72
70730;BME280;58315;53.336;55.932;2023-04-19T03:45:32;101051.75;;;17.58;28.84
70730;BME280;58315;53.336;55.932;2023-04-19T03:47:58;101058.75;;;19.12;27.58
70730;BME280;58315;53.336;55.932;2023-04-19T03:50:24;101064.59;;;20.34;25.43
70730;BME280;58315;53.336;55.932;2023-04-19T03:52:53;101055.59;;;21.48;24.32
70730;BME280;58315;53.336;55.932;2023-04-19T03:55:20;101057.50;;;22.33;23.44
70730;BME280;58315;53.336;55.932;2023-04-19T03:57:46;101056.72;;;23.08;23.05
70730;BME280;58315;53.336;55.932;2023-04-19T04:00:21;101053.09;;;23.75;21.76
70730;BME280;58315;53.336;55.932;2023-04-19T04:02:53;101050.78;;;24.29;21.14
70730;BME280;58315;53.336;55.932;2023-04-19T04:05:20;101053.03;;;24.69;21.17
70730;BME280;58315;53.336;55.932;2023-04-19T04:07:47;101057.56;;;25.18;20.39
70730;BME280;58315;53.336;55.932;2023-04-19T04:10:13;101053.63;;;25.62;19.99
70730;BME280;58315;53.336;55.932;2023-04-19T04:12:41;101055.97;;;26.26;19.49
70730;BME280;58315;53.336;55.932;2023-04-19T04:15:11;101056.59;;;26.94;18.83
70730;BME280;58315;53.336;55.932;2023-04-19T04:17:43;101054.75;;;26.95;19.20
70730;BME280;58315;53.336;55.932;2023-04-19T04:20:10;101050.16;;;27.02;17.97
70730;BME280;58315;53.336;55.932;2023-04-19T04:22:41;101043.47;;;27.25;18.77
70730;BME280;58315;53.336;55.932;2023-04-19T04:25:08;101048.50;;;27.79;18.32
70730;BME280;58315;53.336;55.932;2023-04-19T04:27:37;101051.84;;;28.13;18.25
70730;BME280;58315;53.336;55.932;2023-04-19T04:30:06;101049.59;;;28.42;17.48
70730;BME280;58315;53.336;55.932;2023-04-19T04:32:37;101053.38;;;28.66;17.79
70730;BME280;58315;53.336;55.932;2023-04-19T04:35:05;101045.63;;;28.88;17.28
70730;BME280;58315;53.336;55.932;2023-04-19T04:37:41;101051.91;;;29.13;16.85
70730;BME280;58315;53.336;55.932;2023-04-19T04:40:07;101046.63;;;29.00;17.14
70730;BME280;58315;53.336;55.932;2023-04-19T04:42:34;101048.28;;;29.38;16.92
70730;BME280;58315;53.336;55.932;2023-04-19T04:45:02;101055.94;;;29.66;16.75
70730;BME280;58315;53.336;55.932;2023-04-19T04:47:33;101050.88;;;29.69;16.99
70730;BME280;58315;53.336;55.932;2023-04-19T04:50:03;101048.84;;;29.95;16.61
70730;BME280;58315;53.336;55.932;2023-04-19T04:52:31;101043.91;;;30.34;16.69
70730;BME280;58315;53.336;55.932;2023-04-19T04:55:05;101046.31;;;30.65;16.00
70730;BME280;58315;53.336;55.932;2023-04-19T04:57:35;101050.44;;;30.56;16.02
70730;BME280;58315;53.336;55.932;2023-04-19T05:00:03;101040.44;;;30.80;15.83
70730;BME280;58315;53.336;55.932;2023-04-19T05:02:38;101036.59;;;30.69;15.73
70730;BME280;58315;53.336;55.932;2023-04-19T05:05:05;101044.09;;;31.09;15.47
70730;BME280;58315;53.336;55.932;2023-04-19T05:07:32;101034.66;;;31.40;15.93
70730;BME280;58315;53.336;55.932;2023-04-19T05:10:01;101039.72;;;32.17;15.31
70730;BME280;58315;53.336;55.932;2023-04-19T05:12:33;101038.09;;;32.33;15.13
70730;BME280;58315;53.336;55.932;2023-04-19T05:14:59;101043.28;;;32.63;15.19
70730;BME280;58315;53.336;55.932;2023-04-19T05:17:26;101038.41;;;32.65;15.24
70730;BME280;58315;53.336;55.932;2023-04-19T05:19:52;101046.28;;;33.18;14.65
70730;BME280;58315;53.336;55.932;2023-04-19T05:22:19;101042.78;;;33.22;14.54
70730;BME280;58315;53.336;55.932;2023-04-19T05:24:45;101036.66;;;33.15;14.51
70730;BME280;58315;53.336;55.932;2023-04-19T05:27:12;101036.84;;;33.30;14.44
70730;BME280;58315;53.336;55.932;2023-04-19T05:29:38;101038.25;;;33.50;14.30
70730;BME280;58315;53.336;55.932;2023-04-19T05:32:05;101040.25;;;33.59;14.48
70730;BME280;58315;53.336;55.932;2023-04-19T05:34:36;101033.44;;;33.89;14.83
70730;BME280;58315;53.336;55.932;2023-04-19T05:37:04;101031.19;;;33.81;14.09
70730;BME280;58315;53.336;55.932;2023-04-19T05:39:30;101031.81;;;33.44;14.56
70730;BME280;58315;53.336;55.932;2023-04-19T05:41:57;101024.91;;;33.85;14.30
70730;BME280;58315;53.336;55.932;2023-04-19T05:44:23;101031.28;;;33.91;14.19
70730;BME280;58315;53.336;55.932;2023-04-19T05:46:49;101025.28;;;33.94;14.03
70730;BME280;58315;53.336;55.932;2023-04-19T05:49:28;101026.91;;;33.90;14.14
70730;BME280;58315;53.336;55.932;2023-04-19T05:52:21;101029.75;;;34.00;14.19
70730;BME280;58315;53.336;55.932;2023-04-19T05:54:53;101021.22;;;34.24;14.00
70730;BME280;58315;53.336;55.932;2023-04-19T05:57:20;101012.28;;;34.06;13.78
70730;BME280;58315;53.336;55.932;2023-04-19T05:59:46;101017.44;;;33.76;13.99
70730;BME280;58315;53.336;55.932;2023-04-19T06:02:15;101013.94;;;33.85;13.86
70730;BME280;58315;53.336;55.932;2023-04-19T06:04:41;101021.69;;;33.01;14.37
70730;BME280;58315;53.336;55.932;2023-04-19T06:07:07;101014.03;;;32.47;14.31
70730;BME280;58315;53.336;55.932;2023-04-19T06:09:33;101009.72;;;31.89;14.27
70730;BME280;58315;53.336;55.932;2023-04-19T06:11:59;101004.69;;;30.93;14.56
70730;BME280;58315;53.336;55.932;2023-04-19T06:14:26;101001.06;;;29.81;14.71
70730;BME280;58315;53.336;55.932;2023-04-19T06:16:54;101001.13;;;28.32;16.10
70730;BME280;58315;53.336;55.932;2023-04-19T06:19:21;100994.72;;;27.50;16.86
70730;BME280;58315;53.336;55.932;2023-04-19T06:21:47;100996.56;;;26.58;17.45
70730;BME280;58315;53.336;55.932;2023-04-19T06:24:13;100991.31;;;25.96;17.46
70730;BME280;58315;53.336;55.932;2023-04-19T06:26:39;100994.50;;;25.59;17.65
70730;BME280;58315;53.336;55.932;2023-04-19T06:29:05;100998.72;;;25.20;17.33
70730;BME280;58315;53.336;55.932;2023-04-19T06:31:32;100992.00;;;24.81;18.12
70730;BME280;58315;53.336;55.932;2023-04-19T06:33:58;100987.19;;;24.48;18.69
70730;BME280;58315;53.336;55.932;2023-04-19T06:36:24;100990.66;;;24.21;19.01
70730;BME280;58315;53.336;55.932;2023-04-19T06:38:50;100991.53;;;23.49;19.26
70730;BME280;58315;53.336;55.932;2023-04-19T06:41:16;100991.44;;;23.42;19.55
70730;BME280;58315;53.336;55.932;2023-04-19T06:43:43;100989.78;;;23.41;19.38
70730;BME280;58315;53.336;55.932;2023-04-19T06:46:09;100992.13;;;23.29;19.31
70730;BME280;58315;53.336;55.932;2023-04-19T06:48:38;100993.13;;;23.14;19.59
70730;BME280;58315;53.336;55.932;2023-04-19T06:51:05;100990.16;;;23.08;19.83
70730;BME280;58315;53.336;55.932;2023-04-19T06:53:31;100991.66;;;23.26;19.72
70730;BME280;58315;53.336;55.932;2023-04-19T06:55:58;100989.09;;;23.39;19.54
70730;BME280;58315;53.336;55.932;2023-04-19T06:58:29;100987.75;;;22.99;19.36
70730;BME280;58315;53.336;55.932;2023-04-19T07:00:57;100987.69;;;22.84;19.62
70730;BME280;58315;53.336;55.932;2023-04-19T07:03:23;100984.56;;;22.43;19.69
70730;BME280;58315;53.336;55.932;2023-04-19T07:05:49;100984.91;;;22.25;20.05
70730;BME280;58315;53.336;55.932;2023-04-19T07:08:17;100985.66;;;22.71;19.94
70730;BME280;58315;53.336;55.932;2023-04-19T07:10:43;100982.69;;;22.81;20.14
70730;BME280;58315;53.336;55.932;2023-04-19T07:13:10;100981.41;;;22.92;20.16
70730;BME280;58315;53.336;55.932;2023-04-19T07:15:36;100981.50;;;22.98;19.85
70730;BME280;58315;53.336;55.932;2023-04-19T07:18:02;100976.50;;;22.95;20.09
70730;BME280;58315;53.336;55.932;2023-04-19T07:20:28;100975.09;;;22.99;19.73
70730;BME280;58315;53.336;55.932;2023-04-19T07:22:59;100983.13;;;22.93;19.55
70730;BME280;58315;53.336;55.932;2023-04-19T07:25:25;100976.53;;;22.57;19.60
70730;BME280;58315;53.336;55.932;2023-04-19T07:27:52;100969.16;;;22.51;19.40
70730;BME280;58315;53.336;55.932;2023-04-19T07:30:20;100964.78;;;22.35;19.97
70730;BME280;58315;53.336;55.932;2023-04-19T07:32:46;100964.03;;;22.27;20.09
70730;BME280;58315;53.336;55.932;2023-04-19T07:35:12;100966.38;;;22.45;19.57
70730;BME280;58315;53.336;55.932;2023-04-19T07:37:38;100966.69;;;22.65;19.54
70730;BME280;58315;53.336;55.932;2023-04-19T07:40:05;100958.97;;;22.61;19.63
70730;BME280;58315;53.336;55.932;2023-04-19T07:42:31;100955.09;;;22.64;19.69
70730;BME280;58315;53.336;55.932;2023-04-19T07:44:57;100961.16;;;22.96;19.95
70730;BME280;58315;53.336;55.932;2023-04-19T07:47:24;100956.88;;;23.16;19.67
70730;BME280;58315;53.336;55.932;2023-04-19T07:49:51;100953.13;;;23.32;19.68
70730;BME280;58315;53.336;55.932;2023-04-19T07:52:17;100956.25;;;23.50;19.42
70730;BME280;58315;53.336;55.932;2023-04-19T07:54:43;100957.94;;;23.51;19.43
70730;BME280;58315;53.336;55.932;2023-04-19T07:57:09;100956.25;;;23.50;18.82
70730;BME280;58315;53.336;55.932;2023-04-19T07:59:35;100948.41;;;23.34;18.96
70730;BME280;58315;53.336;55.932;2023-04-19T08:02:01;100948.50;;;23.26;19.00
70730;BME280;58315;53.336;55.932;2023-04-19T08:04:27;100945.25;;;23.30;18.77
70730;BME280;58315;53.336;55.932;2023-04-19T08:06:53;100945.06;;;23.17;18.80
70730;BME280;58315;53.336;55.932;2023-04-19T08:09:19;100947.59;;;23.19;19.25
70730;BME280;58315;53.336;55.932;2023-04-19T08:11:45;100939.28;;;23.35;18.96
70730;BME280;58315;53.336;55.932;2023-04-19T08:14:12;100948.53;;;23.11;19.51
70730;BME280;58315;53.336;55.932;2023-04-19T08:16:38;100945.09;;;23.02;19.50
70730;BME280;58315;53.336;55.932;2023-04-19T08:19:04;100938.66;;;23.18;19.12
70730;BME280;58315;53.336;55.932;2023-04-19T08:21:30;100946.75;;;23.03;19.31
70730;BME280;58315;53.336;55.932;2023-04-19T08:23:56;100943.56;;;22.85;19.43
70730;BME280;58315;53.336;55.932;2023-04-19T08:26:22;100939.19;;;22.54;19.64
70730;BME280;58315;53.336;55.932;2023-04-19T08:28:48;100936.25;;;22.26;19.81
70730;BME280;58315;53.336;55.932;2023-04-19T08:31:16;100930.78;;;22.11;19.94
70730;BME280;58315;53.336;55.932;2023-04-19T08:33:42;100939.66;;;21.97;20.17
70730;BME280;58315;53.336;55.932;2023-04-19T08:36:08;100934.41;;;21.81;20.33
70730;BME280;58315;53.336;55.932;2023-04-19T08:38:34;100940.41;;;21.83;20.48
70730;BME280;58315;53.336;55.932;2023-04-19T08:41:00;100938.53;;;21.69;20.46
70730;BME280;58315;53.336;55.932;2023-04-19T08:43:29;100938.81;;;21.74;20.61
70730;BME280;58315;53.336;55.932;2023-04-19T08:45:58;100936.00;;;21.67;20.53
70730;BME280;58315;53.336;55.932;2023-04-19T08:48:26;100939.94;;;21.56;20.22
70730;BME280;58315;53.336;55.932;2023-04-19T08:50:53;100932.94;;;21.47;20.70
70730;BME280;58315;53.336;55.932;2023-04-19T08:53:21;100932.47;;;21.66;20.33
70730;BME280;58315;53.336;55.932;2023-04-19T08:55:48;100933.09;;;21.77;20.55
70730;BME280;58315;53.336;55.932;2023-04-19T08:58:15;100938.41;;;21.85;20.26
70730;BME280;58315;53.336;55.932;2023-04-19T09:00:41;100936.25;;;21.57;20.55
70730;BME280;58315;53.336;55.932;2023-04-19T09:03:07;100926.63;;;21.63;20.60
70730;BME280;58315;53.336;55.932;2023-04-19T09:05:33;100913.72;;;21.58;20.21
70730;BME280;58315;53.336;55.932;2023-04-19T09:08:29;100919.44;;;21.55;20.75
70730;BME280;58315;53.336;55.932;2023-04-19T09:11:00;100931.44;;;21.67;20.79
70730;BME280;58315;53.336;55.932;2023-04-19T09:13:27;100923.94;;;21.63;20.85
70730;BME280;58315;53.336;55.932;2023-04-19T09:15:54;100921.09;;;21.56;20.68
70730;BME280;58315;53.336;55.932;2023-04-19T09:18:27;100925.38;;;21.42;20.73
70730;BME280;58315;53.336;55.932;2023-04-19T09:20:53;100927.06;;;21.43;20.43
70730;BME280;58315;53.336;55.932;2023-04-19T09:23:24;100923.56;;;21.35;20.71
70730;BME280;58315;53.336;55.932;2023-04-19T09:25:54;100918.69;;;21.38;20.30
70730;BME280;58315;53.336;55.932;2023-04-19T09:28:21;100905.72;;;21.42;20.26
70730;BME280;58315;53.336;55.932;2023-04-19T09:30:47;100908.06;;;21.45;20.28
70730;BME280;58315;53.336;55.932;2023-04-19T09:33:34;100901.56;;;21.62;20.12
70730;BME280;58315;53.336;55.932;2023-04-19T09:36:00;100908.69;;;21.55;20.52
70730;BME280;58315;53.336;55.932;2023-04-19T09:38:27;100907.97;;;21.61;20.63
70730;BME280;58315;53.336;55.932;2023-04-19T09:41:13;100899.78;;;21.78;20.18
70730;BME280;58315;53.336;55.932;2023-04-19T09:43:39;100898.19;;;21.69;20.17
70730;BME280;58315;53.336;55.932;2023-04-19T09:46:05;100901.94;;;21.59;20.23
70730;BME280;58315;53.336;55.932;2023-04-19T09:48:31;100894.22;;;21.25;20.70
70730;BME280;58315;53.336;55.932;2023-04-19T09:50:58;100891.66;;;21.40;20.70
70730;BME280;58315;53.336;55.932;2023-04-19T09:53:27;100889.91;;;21.47;20.37
70730;BME280;58315;53.336;55.932;2023-04-19T09:55:53;100890.75;;;21.71;20.43
70730;BME280;58315;53.336;55.932;2023-04-19T09:58:20;100879.75;;;21.80;19.98
70730;BME280;58315;53.336;55.932;2023-04-19T10:00:47;100876.81;;;21.90;19.91
70730;BME280;58315;53.336;55.932;2023-04-19T10:03:15;100871.00;;;22.01;20.35
70730;BME280;58315;53.336;55.932;2023-04-19T10:05:43;100869.25;;;22.08;20.14
70730;BME280;58315;53.336;55.932;2023-04-19T10:08:12;100879.00;;;22.09;19.96
70730;BME280;58315;53.336;55.932;2023-04-19T10:10:40;100867.50;;;21.78;19.95
70730;BME280;58315;53.336;55.932;2023-04-19T10:13:09;100860.19;;;21.86;20.00
70730;BME280;58315;53.336;55.932;2023-04-19T10:15:36;100857.44;;;21.95;19.90
70730;BME280;58315;53.336;55.932;2023-04-19T10:18:03;100862.56;;;22.04;19.72
70730;BME280;58315;53.336;55.932;2023-04-19T10:20:39;100860.63;;;22.13;19.90
70730;BME280;58315;53.336;55.932;2023-04-19T10:23:06;100848.09;;;22.05;19.76
70730;BME280;58315;53.336;55.932;2023-04-19T10:25:36;100848.81;;;21.99;19.64
70730;BME280;58315;53.336;55.932;2023-04-19T10:28:03;100854.59;;;22.11;19.71
70730;BME280;58315;53.336;55.932;2023-04-19T10:30:29;100848.81;;;21.99;19.70
70730;BME280;58315;53.336;55.932;2023-04-19T10:32:57;100848.53;;;22.17;19.66
70730;BME280;58315;53.336;55.932;2023-04-19T10:35:33;100845.94;;;22.24;19.53
70730;BME280;58315;53.336;55.932;2023-04-19T10:38:14;100849.56;;;22.46;19.72
70730;BME280;58315;53.336;55.932;2023-04-19T10:43:18;100833.56;;;22.14;19.39
70730;BME280;58315;53.336;55.932;2023-04-19T10:45:46;100848.91;;;22.29;19.58
70730;BME280;58315;53.336;55.932;2023-04-19T10:50:58;100841.13;;;22.49;19.36
70730;BME280;58315;53.336;55.932;2023-04-19T11:01:38;100843.41;;;22.37;19.50
70730;BME280;58315;53.336;55.932;2023-04-19T11:04:09;100834.97;;;21.87;19.42
70730;BME280;58315;53.336;55.932;2023-04-19T11:06:37;100833.97;;;21.65;19.78
70730;BME280;58315;53.336;55.932;2023-04-19T11:09:03;100830.78;;;21.85;19.82
70730;BME280;58315;53.336;55.932;2023-04-19T11:11:35;100831.47;;;22.02;19.63
70730;BME280;58315;53.336;55.932;2023-04-19T11:14:02;100827.88;;;22.09;19.85
70730;BME280;58315;53.336;55.932;2023-04-19T11:16:31;100828.19;;;22.14;19.62
70730;BME280;58315;53.336;55.932;2023-04-19T11:18:57;100836.88;;;21.79;20.03
70730;BME280;58315;53.336;55.932;2023-04-19T11:21:23;100839.41;;;21.34;20.07
70730;BME280;58315;53.336;55.932;2023-04-19T11:24:05;100833.19;;;21.34;20.45
70730;BME280;58315;53.336;55.932;2023-04-19T11:26:31;100826.63;;;21.36;20.38
70730;BME280;58315;53.336;55.932;2023-04-19T11:28:57;100820.91;;;21.62;20.31
70730;BME280;58315;53.336;55.932;2023-04-19T11:31:24;100819.44;;;21.75;20.10
70730;BME280;58315;53.336;55.932;2023-04-19T11:33:50;100811.69;;;21.57;20.20
70730;BME280;58315;53.336;55.932;2023-04-19T11:36:16;100804.28;;;21.59;20.35
70730;BME280;58315;53.336;55.932;2023-04-19T11:38:46;100809.53;;;21.90;19.99
70730;BME280;58315;53.336;55.932;2023-04-19T11:41:12;100805.03;;;22.05;19.43
70730;BME280;58315;53.336;55.932;2023-04-19T11:43:38;100804.63;;;22.17;19.72
70730;BME280;58315;53.336;55.932;2023-04-19T11:46:07;100818.44;;;22.43;19.47
70730;BME280;58315;53.336;55.932;2023-04-19T11:48:34;100819.47;;;22.42;19.26
70730;BME280;58315;53.336;55.932;2023-04-19T11:51:00;100813.25;;;22.27;19.04
70730;BME280;58315;53.336;55.932;2023-04-19T11:53:28;100803.59;;;22.18;19.03
70730;BME280;58315;53.336;55.932;2023-04-19T11:56:06;100807.88;;;22.27;19.21
70730;BME280;58315;53.336;55.932;2023-04-19T11:58:36;100804.63;;;21.94;19.10
70730;BME280;58315;53.336;55.932;2023-04-19T12:01:05;100811.59;;;21.88;19.21
70730;BME280;58315;53.336;55.932;2023-04-19T12:03:32;100802.31;;;21.76;19.29
70730;BME280;58315;53.336;55.932;2023-04-19T12:06:00;100806.28;;;21.80;19.27
70730;BME280;58315;53.336;55.932;2023-04-19T12:08:37;100802.22;;;21.61;19.18
70730;BME280;58315;53.336;55.932;2023-04-19T12:11:04;100795.56;;;21.34;19.28
70730;BME280;58315;53.336;55.932;2023-04-19T12:13:31;100793.28;;;21.46;19.51
70730;BME280;58315;53.336;55.932;2023-04-19T12:15:59;100801.94;;;21.56;19.62
70730;BME280;58315;53.336;55.932;2023-04-19T12:18:25;100793.41;;;21.52;19.77
70730;BME280;58315;53.336;55.932;2023-04-19T12:20:52;100794.44;;;21.51;19.65
70730;BME280;58315;53.336;55.932;2023-04-19T12:23:19;100789.25;;;21.64;19.61
70730;BME280;58315;53.336;55.932;2023-04-19T12:25:47;100782.88;;;21.65;19.75
70730;BME280;58315;53.336;55.932;2023-04-19T12:28:14;100787.81;;;21.77;19.34
70730;BME280;58315;53.336;55.932;2023-04-19T12:30:40;100787.50;;;21.72;19.48
70730;BME280;58315;53.336;55.932;2023-04-19T12:33:07;100782.53;;;21.69;19.64
70730;BME280;58315;53.336;55.932;2023-04-19T12:35:33;100781.19;;;21.64;19.83
70730;BME280;58315;53.336;55.932;2023-04-19T12:38:03;100782.06;;;21.42;19.30
70730;BME280;58315;53.336;55.932;2023-04-19T12:40:29;100780.31;;;21.49;19.33
70730;BME280;58315;53.336;55.932;2023-04-19T12:42:56;100784.81;;;21.34;19.29
70730;BME280;58315;53.336;55.932;2023-04-19T12:45:22;100786.19;;;20.99;19.07
70730;BME280;58315;53.336;55.932;2023-04-19T12:47:48;100787.53;;;21.03;19.44
70730;BME280;58315;53.336;55.932;2023-04-19T12:50:14;100778.22;;;21.13;19.11
70730;BME280;58315;53.336;55.932;2023-04-19T12:52:41;100781.19;;;21.18;18.97
70730;BME280;58315;53.336;55.932;2023-04-19T12:55:08;100775.91;;;21.02;18.84
70730;BME280;58315;53.336;55.932;2023-04-19T12:57:34;100776.50;;;20.89;19.12